Time;durP1;ratioP1;P1;durP2;ratioP2;P2;SDS_P1;SDS_P2;PMS_P1;PMS_P2;Temp;Humidity;BMP_temperature;BMP_pressure;BME280_temperature;BME280_humidity;BME280_pressure;Samples;Min_cycle;Max_cycle;Signal;HPM_P1;HPM_P2
2021/11/15 00:01:25;;;;;;;8.73;4.97;;;10.40;99.90;;;;;;5075219;28;20020;-78
2021/11/15 00:03:50;;;;;;;10.40;5.20;;;10.40;99.90;;;;;;5074734;28;20028;-79
2021/11/15 00:06:16;;;;;;;9.80;5.13;;;10.40;99.90;;;;;;5075175;28;20024;-79
2021/11/15 00:08:42;;;;;;;7.25;4.43;;;10.40;99.90;;;;;;5074482;28;20034;-80
2021/11/15 00:11:07;;;;;;;8.32;5.03;;;10.40;99.90;;;;;;5092988;28;20035;-80
2021/11/15 00:13:33;;;;;;;8.35;4.95;;;10.40;99.90;;;;;;5071867;28;20023;-82
2021/11/15 00:15:59;;;;;;;9.68;4.88;;;10.40;99.90;;;;;;5078975;28;20024;-82
2021/11/15 00:18:25;;;;;;;9.30;5.13;;;10.40;99.90;;;;;;5093580;28;20052;-80
2021/11/15 00:20:50;;;;;;;9.55;5.20;;;10.40;99.90;;;;;;5071449;28;20028;-79
2021/11/15 00:23:16;;;;;;;11.18;5.40;;;10.40;99.90;;;;;;5072997;28;20015;-79
2021/11/15 00:25:42;;;;;;;8.63;5.03;;;10.40;99.90;;;;;;5071278;28;20020;-79
2021/11/15 00:28:07;;;;;;;8.55;5.03;;;10.40;99.90;;;;;;5090301;28;20141;-80
2021/11/15 00:30:33;;;;;;;10.20;5.63;;;10.30;99.90;;;;;;5070093;28;20119;-80
2021/11/15 00:32:59;;;;;;;9.73;5.55;;;10.30;99.90;;;;;;5067766;28;20028;-80
2021/11/15 00:35:25;;;;;;;11.38;5.78;;;10.30;99.90;;;;;;5069265;28;20047;-82
2021/11/15 00:37:51;;;;;;;12.73;6.20;;;10.30;99.90;;;;;;5087974;28;20310;-82
2021/11/15 00:40:18;;;;;;;8.38;5.47;;;10.30;99.90;;;;;;5068206;28;20036;-79
2021/11/15 00:42:44;;;;;;;10.80;6.18;;;10.30;99.90;;;;;;5071383;28;20028;-81
2021/11/15 00:45:12;;;;;;;11.32;5.72;;;10.30;99.90;;;;;;5070272;28;20429;-82
2021/11/15 00:47:38;;;;;;;11.60;6.10;;;10.30;99.90;;;;;;5089826;28;20095;-82
2021/11/15 00:50:09;;;;;;;11.27;6.55;;;10.30;99.90;;;;;;5095708;28;20475;-78
2021/11/15 00:52:35;;;;;;;9.70;5.95;;;10.30;99.90;;;;;;5093146;28;20103;-76
2021/11/15 00:55:01;;;;;;;10.90;6.38;;;10.30;99.90;;;;;;5077092;28;20046;-76
2021/11/15 00:57:26;;;;;;;10.82;6.72;;;10.30;99.90;;;;;;5076952;28;20036;-76
2021/11/15 00:59:52;;;;;;;11.75;6.43;;;10.30;99.90;;;;;;5076347;28;20031;-76
2021/11/15 01:02:19;;;;;;;10.25;5.95;;;10.30;99.90;;;;;;5075178;28;20043;-76
2021/11/15 01:04:45;;;;;;;13.25;6.55;;;10.30;99.90;;;;;;5094867;28;20019;-76
2021/11/15 01:07:11;;;;;;;10.77;6.10;;;10.30;99.90;;;;;;5095216;28;20455;-75
2021/11/15 01:09:36;;;;;;;10.77;5.68;;;10.30;99.90;;;;;;5076571;28;20127;-77
2021/11/15 01:12:03;;;;;;;10.50;6.05;;;10.20;99.90;;;;;;5095379;28;20020;-76
2021/11/15 01:14:28;;;;;;;9.95;6.25;;;10.30;99.90;;;;;;5076946;28;20069;-76
2021/11/15 01:16:54;;;;;;;12.50;6.78;;;10.30;99.90;;;;;;5076594;28;20020;-76
2021/11/15 01:19:20;;;;;;;14.90;6.55;;;10.20;99.90;;;;;;5095005;28;20403;-76
2021/11/15 01:21:46;;;;;;;13.15;6.60;;;10.20;99.90;;;;;;5076320;28;20059;-76
2021/11/15 01:24:11;;;;;;;11.35;7.05;;;10.20;99.90;;;;;;5076537;28;20031;-76
2021/11/15 01:26:38;;;;;;;11.18;6.63;;;10.20;99.90;;;;;;5094383;28;20024;-77
2021/11/15 01:29:04;;;;;;;11.45;6.88;;;10.20;99.90;;;;;;5076691;28;20123;-76
2021/11/15 01:31:29;;;;;;;12.57;6.63;;;10.20;99.90;;;;;;5076754;28;20107;-76
2021/11/15 01:33:55;;;;;;;13.77;7.03;;;10.20;99.90;;;;;;5076096;28;20024;-75
2021/11/15 01:36:21;;;;;;;11.98;6.63;;;10.20;99.90;;;;;;5094757;28;20020;-76
2021/11/15 01:38:47;;;;;;;12.73;6.70;;;10.20;99.90;;;;;;5093587;28;20048;-76
2021/11/15 01:41:12;;;;;;;15.07;7.22;;;10.20;99.90;;;;;;5076565;28;20480;-76
2021/11/15 01:43:39;;;;;;;14.23;7.07;;;10.20;99.90;;;;;;5075858;28;20072;-76
2021/11/15 01:46:05;;;;;;;13.77;7.57;;;10.20;99.90;;;;;;5076398;28;20518;-76
2021/11/15 01:48:31;;;;;;;13.30;6.60;;;10.20;99.90;;;;;;5094377;28;20028;-75
2021/11/15 01:50:56;;;;;;;12.98;6.60;;;10.20;99.90;;;;;;5075754;28;20507;-76
2021/11/15 01:53:22;;;;;;;11.95;7.22;;;10.20;99.90;;;;;;5094267;28;20024;-75
2021/11/15 01:55:48;;;;;;;12.05;6.57;;;10.20;99.90;;;;;;5093707;28;20020;-75
2021/11/15 01:58:16;;;;;;;11.52;6.47;;;10.10;99.90;;;;;;5094133;28;20047;-76
2021/11/15 02:00:48;;;;;;;13.88;6.63;;;10.20;99.90;;;;;;5093660;28;20028;-76
2021/11/15 02:03:15;;;;;;;10.85;6.18;;;10.10;99.90;;;;;;5075828;28;20077;-75
2021/11/15 02:05:42;;;;;;;13.18;6.20;;;10.10;99.90;;;;;;5075541;28;20069;-75
2021/11/15 02:08:08;;;;;;;14.85;7.40;;;10.10;99.90;;;;;;5093627;28;20028;-76
2021/11/15 02:10:34;;;;;;;14.32;6.35;;;10.10;99.90;;;;;;5075850;28;20115;-75
2021/11/15 02:13:00;;;;;;;12.77;6.75;;;10.10;99.90;;;;;;5075513;28;20027;-75
2021/11/15 02:15:26;;;;;;;11.30;6.35;;;10.10;99.90;;;;;;5075892;28;20024;-75
2021/11/15 02:17:52;;;;;;;11.27;5.53;;;10.10;99.90;;;;;;5075169;28;20441;-75
2021/11/15 02:20:41;;;;;;;10.43;5.78;;;10.10;99.90;;;;;;5075554;28;20425;-76
2021/11/15 02:23:07;;;;;;;10.48;6.10;;;10.00;99.90;;;;;;5075237;28;20034;-75
2021/11/15 02:25:34;;;;;;;12.48;6.03;;;10.10;99.90;;;;;;5075559;28;20106;-76
2021/11/15 02:28:00;;;;;;;9.55;5.45;;;10.10;99.90;;;;;;5074903;28;20031;-76
2021/11/15 02:30:27;;;;;;;10.40;5.78;;;10.10;99.90;;;;;;5075354;28;20032;-75
2021/11/15 02:32:54;;;;;;;10.30;5.55;;;10.00;99.90;;;;;;5092769;28;20024;-76
2021/11/15 02:35:21;;;;;;;11.32;5.65;;;10.00;99.90;;;;;;5093115;28;20024;-76
2021/11/15 02:37:47;;;;;;;12.23;5.43;;;10.00;99.90;;;;;;5074383;28;20024;-76
2021/11/15 02:40:16;;;;;;;13.65;5.78;;;10.00;99.90;;;;;;5075195;28;20119;-76
2021/11/15 02:42:43;;;;;;;10.70;5.63;;;10.00;99.90;;;;;;5074925;28;20031;-76
2021/11/15 02:45:10;;;;;;;13.07;5.93;;;10.00;99.80;;;;;;5075463;28;20441;-76
2021/11/15 02:47:37;;;;;;;14.32;5.88;;;10.00;99.80;;;;;;5093129;28;20030;-76
2021/11/15 02:50:06;;;;;;;13.80;6.32;;;9.90;99.60;;;;;;5075358;28;20054;-76
2021/11/15 02:52:32;;;;;;;11.13;5.78;;;9.90;99.70;;;;;;5093301;28;20039;-76
2021/11/15 02:54:59;;;;;;;13.00;5.55;;;9.80;99.70;;;;;;5074957;28;20024;-76
2021/11/15 02:57:26;;;;;;;13.98;6.28;;;9.80;99.90;;;;;;5093317;28;20066;-77
2021/11/15 02:59:52;;;;;;;16.02;6.70;;;9.80;99.90;;;;;;5092845;28;20058;-77
2021/11/15 03:02:23;;;;;;;13.45;6.30;;;9.80;99.70;;;;;;5075263;28;20028;-77
2021/11/15 03:04:49;;;;;;;14.35;6.25;;;9.80;99.70;;;;;;5092728;28;20023;-76
2021/11/15 03:07:14;;;;;;;14.07;5.97;;;9.80;99.60;;;;;;5075209;28;20032;-76
2021/11/15 03:09:40;;;;;;;13.63;6.25;;;9.80;99.80;;;;;;5092743;28;20376;-77
2021/11/15 03:12:08;;;;;;;13.48;5.78;;;9.80;99.70;;;;;;5092785;28;20069;-76
2021/11/15 03:14:34;;;;;;;15.27;6.35;;;9.80;99.50;;;;;;5093004;28;20032;-76
2021/11/15 03:17:00;;;;;;;15.00;7.07;;;9.80;99.60;;;;;;5092540;28;20476;-76
2021/11/15 03:19:26;;;;;;;13.55;5.97;;;9.70;99.50;;;;;;5074750;28;20058;-76
2021/11/15 03:21:51;;;;;;;13.07;6.13;;;9.80;99.70;;;;;;5074448;28;20024;-76
2021/11/15 03:24:17;;;;;;;12.20;6.22;;;9.70;99.60;;;;;;5092960;28;20467;-76
2021/11/15 03:26:43;;;;;;;12.70;5.80;;;9.80;99.70;;;;;;5092357;28;20476;-76
2021/11/15 03:29:08;;;;;;;13.13;6.18;;;9.70;99.70;;;;;;5092779;28;20020;-76
2021/11/15 03:31:35;;;;;;;14.32;6.57;;;9.70;99.80;;;;;;5092934;28;20023;-76
2021/11/15 03:34:10;;;;;;;12.75;5.60;;;9.70;99.50;;;;;;5092314;28;20074;-76
2021/11/15 03:36:36;;;;;;;14.38;5.60;;;9.70;99.40;;;;;;5093018;28;20031;-76
2021/11/15 03:39:04;;;;;;;14.75;6.00;;;9.70;99.50;;;;;;5074217;28;20035;-76
2021/11/15 03:41:33;;;;;;;15.38;6.50;;;9.60;99.40;;;;;;5074735;28;20412;-76
2021/11/15 03:43:58;;;;;;;13.93;5.95;;;9.60;99.50;;;;;;5074051;28;20063;-77
2021/11/15 03:46:24;;;;;;;15.65;6.38;;;9.60;99.50;;;;;;5074628;28;20433;-75
2021/11/15 03:48:51;;;;;;;14.48;6.20;;;9.60;99.60;;;;;;5077863;28;20027;-76
2021/11/15 03:51:17;;;;;;;15.10;6.80;;;9.60;99.50;;;;;;5078517;28;20024;-76
2021/11/15 03:53:44;;;;;;;16.85;6.82;;;9.60;99.60;;;;;;5096180;28;20016;-76
2021/11/15 03:56:13;;;;;;;11.63;5.68;;;9.60;99.70;;;;;;5078448;28;20016;-76
2021/11/15 03:58:41;;;;;;;18.73;7.30;;;9.60;99.30;;;;;;5078042;28;20396;-76
2021/11/15 04:01:08;;;;;;;13.95;6.55;;;9.60;99.40;;;;;;5096646;28;20020;-76
2021/11/15 04:03:36;;;;;;;13.73;6.13;;;9.60;99.50;;;;;;5096584;28;20016;-76
2021/11/15 04:06:24;;;;;;;14.30;7.22;;;9.60;99.20;;;;;;5077544;28;20028;-76
2021/11/15 04:08:52;;;;;;;12.32;5.80;;;9.60;98.70;;;;;;5095819;28;20031;-77
2021/11/15 04:11:19;;;;;;;13.88;5.85;;;9.60;99.00;;;;;;5096542;28;20024;-76
2021/11/15 04:13:47;;;;;;;13.60;6.43;;;9.50;98.80;;;;;;5077612;28;20512;-76
2021/11/15 04:16:15;;;;;;;14.95;6.70;;;9.60;99.00;;;;;;5078102;28;20503;-76
2021/11/15 04:18:47;;;;;;;13.82;5.80;;;9.60;99.30;;;;;;5096184;28;20054;-76
2021/11/15 04:21:14;;;;;;;13.38;5.80;;;9.50;99.30;;;;;;5096266;28;20020;-75
2021/11/15 04:23:40;;;;;;;12.40;6.03;;;9.50;99.40;;;;;;5078011;28;20086;-76
2021/11/15 04:26:05;;;;;;;16.17;6.63;;;9.50;99.40;;;;;;5095315;28;20020;-76
2021/11/15 04:28:31;;;;;;;15.63;6.78;;;9.50;99.50;;;;;;5077885;28;20024;-76
2021/11/15 04:30:57;;;;;;;15.25;6.75;;;9.40;99.30;;;;;;5077387;28;20024;-76
2021/11/15 04:33:23;;;;;;;14.30;5.93;;;9.50;99.10;;;;;;5095922;28;20438;-75
2021/11/15 04:35:50;;;;;;;16.77;6.20;;;9.50;99.00;;;;;;5095380;28;20368;-77
2021/11/15 04:38:16;;;;;;;14.75;6.75;;;9.50;99.20;;;;;;5077490;28;20024;-76
2021/11/15 04:40:42;;;;;;;14.27;6.60;;;9.50;99.60;;;;;;5077613;28;20024;-76
2021/11/15 04:43:07;;;;;;;14.57;6.53;;;9.50;99.80;;;;;;5095243;28;20046;-76
2021/11/15 04:45:33;;;;;;;14.80;6.13;;;9.50;99.50;;;;;;5077742;28;20470;-76
2021/11/15 04:47:59;;;;;;;13.48;6.22;;;9.50;99.70;;;;;;5095276;28;20090;-76
2021/11/15 04:50:25;;;;;;;18.95;6.47;;;9.50;99.60;;;;;;5077574;28;20070;-76
2021/11/15 04:52:50;;;;;;;14.40;6.03;;;9.50;99.50;;;;;;5077060;28;20365;-77
2021/11/15 04:55:18;;;;;;;18.92;6.72;;;9.50;99.90;;;;;;5077442;28;20437;-76
2021/11/15 04:57:44;;;;;;;12.90;5.50;;;9.50;99.70;;;;;;5094846;28;20044;-76
2021/11/15 05:00:19;;;;;;;12.25;5.70;;;9.50;99.60;;;;;;5093827;28;20031;-76
2021/11/15 05:02:48;;;;;;;13.52;6.28;;;9.50;99.70;;;;;;5095485;28;20537;-76
2021/11/15 05:05:16;;;;;;;15.32;5.93;;;9.50;99.60;;;;;;5077316;28;20027;-76
2021/11/15 05:07:41;;;;;;;12.13;6.43;;;9.40;99.50;;;;;;5077195;28;20024;-76
2021/11/15 05:10:08;;;;;;;16.88;6.57;;;9.40;99.60;;;;;;5076691;28;20081;-76
2021/11/15 05:12:37;;;;;;;15.45;6.28;;;9.40;99.40;;;;;;5077177;28;20078;-76
2021/11/15 05:15:09;;;;;;;13.45;6.00;;;9.40;99.40;;;;;;5076451;28;20020;-76
2021/11/15 05:17:35;;;;;;;12.35;5.55;;;9.40;99.50;;;;;;5076909;28;20035;-76
2021/11/15 05:20:01;;;;;;;14.23;6.40;;;9.40;99.60;;;;;;5094352;28;20028;-77
2021/11/15 05:22:27;;;;;;;12.02;5.97;;;9.50;99.80;;;;;;5095311;28;20415;-76
2021/11/15 05:24:52;;;;;;;11.20;5.75;;;9.50;99.90;;;;;;5076578;28;20016;-77
2021/11/15 05:27:18;;;;;;;13.77;6.60;;;9.40;99.80;;;;;;5076959;28;20457;-76
2021/11/15 05:29:44;;;;;;;13.93;5.72;;;9.40;99.70;;;;;;5094805;28;20081;-76
2021/11/15 05:32:10;;;;;;;11.50;5.82;;;9.40;99.90;;;;;;5076223;28;20077;-76
2021/11/15 05:34:36;;;;;;;11.60;5.68;;;9.40;99.80;;;;;;5094647;28;20028;-76
2021/11/15 05:37:01;;;;;;;11.68;5.93;;;9.40;99.70;;;;;;5076036;28;20024;-76
2021/11/15 05:39:27;;;;;;;12.48;5.70;;;9.40;99.70;;;;;;5076673;28;20040;-76
2021/11/15 05:41:53;;;;;;;12.60;5.80;;;9.40;99.80;;;;;;5076166;28;20042;-76
2021/11/15 05:44:19;;;;;;;11.13;5.85;;;9.40;99.30;;;;;;5076616;28;20020;-74
2021/11/15 05:46:44;;;;;;;12.48;5.72;;;9.40;99.80;;;;;;5094580;28;20020;-75
2021/11/15 05:49:10;;;;;;;11.15;5.85;;;9.30;99.60;;;;;;5075754;28;20030;-75
2021/11/15 05:51:36;;;;;;;12.95;5.35;;;9.40;99.50;;;;;;5094223;28;20024;-75
2021/11/15 05:54:02;;;;;;;13.52;5.88;;;9.30;99.70;;;;;;5075817;28;20520;-75
2021/11/15 05:56:27;;;;;;;13.75;6.18;;;9.40;99.60;;;;;;5094359;28;20445;-76
2021/11/15 05:58:53;;;;;;;12.20;6.28;;;9.40;99.80;;;;;;5093846;28;20075;-76
2021/11/15 06:01:19;;;;;;;14.52;6.45;;;9.30;99.70;;;;;;5076157;28;20070;-74
2021/11/15 06:03:44;;;;;;;14.27;5.53;;;9.30;99.60;;;;;;5076243;28;20445;-76
2021/11/15 06:06:10;;;;;;;12.90;6.03;;;9.30;99.60;;;;;;5075629;28;20028;-76
2021/11/15 06:08:37;;;;;;;11.80;5.72;;;9.30;99.40;;;;;;5075894;28;20024;-76
2021/11/15 06:11:03;;;;;;;13.52;6.20;;;9.30;99.60;;;;;;5093524;28;20110;-76
2021/11/15 06:13:29;;;;;;;11.93;5.93;;;9.30;99.70;;;;;;5075936;28;20421;-76
2021/11/15 06:15:55;;;;;;;12.07;5.97;;;9.30;99.70;;;;;;5075428;28;20449;-76
2021/11/15 06:18:21;;;;;;;11.43;5.45;;;9.30;99.70;;;;;;5075679;28;20023;-76
2021/11/15 06:20:46;;;;;;;11.20;5.97;;;9.30;99.70;;;;;;5093907;28;20125;-76
2021/11/15 06:23:12;;;;;;;13.68;6.03;;;9.30;99.50;;;;;;5075321;28;20030;-76
2021/11/15 06:25:38;;;;;;;15.73;6.32;;;9.20;99.20;;;;;;5075653;28;20024;-75
2021/11/15 06:28:04;;;;;;;14.38;6.75;;;9.20;99.40;;;;;;5075188;28;20448;-76
2021/11/15 06:30:30;;;;;;;13.50;5.75;;;9.20;99.40;;;;;;5075621;28;20032;-76
2021/11/15 06:32:56;;;;;;;11.57;5.50;;;9.20;99.70;;;;;;5093095;28;20024;-76
2021/11/15 06:35:21;;;;;;;13.55;5.72;;;9.20;99.60;;;;;;5093571;28;20031;-75
2021/11/15 06:37:47;;;;;;;11.20;5.47;;;9.20;99.80;;;;;;5075319;28;20020;-75
2021/11/15 06:40:15;;;;;;;11.88;5.47;;;9.20;99.50;;;;;;5074824;28;20557;-76
2021/11/15 06:42:42;;;;;;;13.45;6.50;;;9.20;99.60;;;;;;5075435;28;20089;-75
2021/11/15 06:45:08;;;;;;;10.50;5.70;;;9.20;99.50;;;;;;5092913;28;20020;-76
2021/11/15 06:47:38;;;;;;;12.77;5.25;;;9.20;99.80;;;;;;5093301;28;20145;-76
2021/11/15 06:50:07;;;;;;;10.02;5.40;;;9.20;99.60;;;;;;5092997;28;20027;-76
2021/11/15 06:52:33;;;;;;;10.48;5.80;;;9.20;99.60;;;;;;5075222;28;20436;-75
2021/11/15 06:54:59;;;;;;;12.73;5.85;;;9.20;99.40;;;;;;5092547;28;20059;-76
2021/11/15 06:57:26;;;;;;;12.68;6.18;;;9.20;99.50;;;;;;5093175;28;20408;-75
2021/11/15 06:59:53;;;;;;;10.60;5.88;;;9.20;99.50;;;;;;5074979;28;20483;-75
2021/11/15 07:02:18;;;;;;;12.85;6.05;;;9.20;99.30;;;;;;5092937;28;20081;-75
2021/11/15 07:04:44;;;;;;;14.75;5.50;;;9.20;99.50;;;;;;5093168;28;20391;-75
2021/11/15 07:07:10;;;;;;;10.88;5.60;;;9.20;99.50;;;;;;5092867;28;20425;-76
2021/11/15 07:09:36;;;;;;;10.65;5.53;;;9.20;99.50;;;;;;5075108;28;20038;-75
2021/11/15 07:12:02;;;;;;;11.57;5.53;;;9.20;99.50;;;;;;5074642;28;20032;-76
2021/11/15 07:14:28;;;;;;;11.63;5.43;;;9.20;99.70;;;;;;5092958;28;20349;-76
2021/11/15 07:16:54;;;;;;;10.32;5.53;;;9.20;99.80;;;;;;5083313;28;20029;-77
2021/11/15 07:19:20;;;;;;;12.32;5.35;;;9.20;99.60;;;;;;5072919;28;20465;-76
2021/11/15 07:21:46;;;;;;;10.38;5.75;;;9.20;99.90;;;;;;5054209;28;20025;-75
2021/11/15 07:24:12;;;;;;;11.70;5.55;;;9.20;99.90;;;;;;5054447;28;20032;-75
2021/11/15 07:26:37;;;;;;;11.93;5.72;;;9.20;99.50;;;;;;5054888;28;20016;-76
2021/11/15 07:29:03;;;;;;;11.23;6.03;;;9.10;99.50;;;;;;5059045;28;20036;-77
2021/11/15 07:31:29;;;;;;;9.80;5.30;;;9.20;99.60;;;;;;5063445;28;20416;-76
2021/11/15 07:33:56;;;;;;;11.23;5.97;;;9.20;99.60;;;;;;5080761;28;20090;-76
2021/11/15 07:36:22;;;;;;;12.30;5.85;;;9.10;99.60;;;;;;5082460;28;20016;-76
2021/11/15 07:38:48;;;;;;;10.50;5.32;;;9.10;99.60;;;;;;5081577;28;20085;-76
2021/11/15 07:41:15;;;;;;;11.52;5.82;;;9.20;99.90;;;;;;5065071;28;20372;-76
2021/11/15 07:43:40;;;;;;;13.65;5.93;;;9.10;99.60;;;;;;5064315;28;20056;-77
2021/11/15 07:46:06;;;;;;;9.85;5.20;;;9.10;99.70;;;;;;5079666;28;20047;-76
2021/11/15 07:48:32;;;;;;;10.18;5.38;;;9.20;99.80;;;;;;5074343;28;20463;-75
2021/11/15 07:51:00;;;;;;;11.95;5.88;;;9.10;99.70;;;;;;5073419;28;20378;-77
2021/11/15 07:53:26;;;;;;;12.82;5.60;;;9.20;99.50;;;;;;5074441;28;20016;-76
2021/11/15 07:55:52;;;;;;;10.50;5.43;;;9.20;99.50;;;;;;5073966;28;20342;-76
2021/11/15 07:58:18;;;;;;;11.38;5.65;;;9.10;99.70;;;;;;5088783;28;20042;-76
2021/11/15 08:00:44;;;;;;;11.02;5.20;;;9.10;99.40;;;;;;5092082;28;20028;-75
2021/11/15 08:03:09;;;;;;;14.00;5.75;;;9.10;99.60;;;;;;5073721;28;20465;-77
2021/11/15 08:05:35;;;;;;;10.80;5.05;;;9.10;99.60;;;;;;5074000;28;20061;-76
2021/11/15 08:08:02;;;;;;;12.52;5.75;;;9.20;99.90;;;;;;5065082;28;20446;-76
2021/11/15 08:10:28;;;;;;;9.90;5.32;;;9.10;99.60;;;;;;5064575;28;20020;-76
2021/11/15 08:12:56;;;;;;;11.52;4.95;;;9.20;99.80;;;;;;5079786;28;20042;-76
2021/11/15 08:15:24;;;;;;;10.05;5.15;;;9.20;99.70;;;;;;5085104;28;20016;-76
2021/11/15 08:17:53;;;;;;;9.45;4.97;;;9.20;99.60;;;;;;5057009;28;20078;-78
2021/11/15 08:20:23;;;;;;;10.80;5.45;;;9.20;99.60;;;;;;5056846;28;20073;-79
2021/11/15 08:22:51;;;;;;;11.68;4.85;;;9.20;99.30;;;;;;5093290;28;20076;-78
2021/11/15 08:26:07;;;;;;;11.57;5.75;;;9.20;99.50;;;;;;5075203;28;20855;-79
2021/11/15 08:28:33;;;;;;;11.23;5.50;;;9.20;99.70;;;;;;5075599;28;20055;-78
2021/11/15 08:31:00;;;;;;;10.75;5.55;;;9.20;99.80;;;;;;5092100;28;20066;-78
2021/11/15 08:33:28;;;;;;;11.70;5.68;;;9.20;99.70;;;;;;5093368;28;20030;-78
2021/11/15 08:35:54;;;;;;;10.45;5.10;;;9.20;99.50;;;;;;5096772;28;20020;-79
2021/11/15 08:38:40;;;;;;;9.35;4.97;;;9.20;99.40;;;;;;5096787;28;20024;-78
2021/11/15 08:41:06;;;;;;;9.38;5.28;;;9.20;99.60;;;;;;5069069;28;20040;-79
2021/11/15 08:43:33;;;;;;;11.00;5.05;;;9.20;99.50;;;;;;5072991;28;20020;-78
2021/11/15 08:45:59;;;;;;;11.63;5.50;;;9.20;99.60;;;;;;5068629;28;20024;-78
2021/11/15 08:48:25;;;;;;;11.88;4.95;;;9.30;99.70;;;;;;5066748;28;20065;-78
2021/11/15 08:50:50;;;;;;;9.23;4.88;;;9.30;99.80;;;;;;5072143;28;20020;-79
2021/11/15 08:53:16;;;;;;;12.35;5.65;;;9.30;99.70;;;;;;5068262;28;20051;-81
2021/11/15 08:55:42;;;;;;;11.32;5.90;;;9.30;99.80;;;;;;5084730;28;20040;-76
2021/11/15 08:58:07;;;;;;;9.20;5.22;;;9.20;99.80;;;;;;5069482;28;20116;-83
2021/11/15 09:00:33;;;;;;;9.27;4.95;;;9.30;99.90;;;;;;5078389;28;20039;-80
2021/11/15 09:02:59;;;;;;;9.15;5.30;;;9.20;99.90;;;;;;5078183;28;20028;-80
2021/11/15 09:05:25;;;;;;;9.15;4.70;;;9.20;99.90;;;;;;5078439;28;20020;-80
2021/11/15 09:07:52;;;;;;;10.05;4.85;;;9.20;99.70;;;;;;5096050;28;20166;-78
2021/11/15 09:10:18;;;;;;;9.27;4.78;;;9.20;99.80;;;;;;5088135;28;20039;-78
2021/11/15 09:12:46;;;;;;;9.90;4.28;;;9.20;99.80;;;;;;5065392;28;20024;-77
2021/11/15 09:15:14;;;;;;;11.02;4.85;;;9.20;99.60;;;;;;5083082;28;20027;-75
2021/11/15 09:17:42;;;;;;;9.18;4.85;;;9.30;99.70;;;;;;5065371;28;20016;-75
2021/11/15 09:20:09;;;;;;;12.60;5.03;;;9.20;99.50;;;;;;5074370;28;20021;-75
2021/11/15 09:22:36;;;;;;;9.75;5.00;;;9.20;99.60;;;;;;5074544;28;20020;-76
2021/11/15 09:25:04;;;;;;;12.50;5.38;;;9.20;99.80;;;;;;5058196;28;20032;-76
2021/11/15 09:27:30;;;;;;;10.80;4.97;;;9.20;99.60;;;;;;5076507;28;20479;-76
2021/11/15 09:29:56;;;;;;;9.57;4.57;;;9.20;99.70;;;;;;5076452;28;20024;-76
2021/11/15 09:32:23;;;;;;;9.77;4.65;;;9.30;99.90;;;;;;5076032;28;20058;-76
2021/11/15 09:34:49;;;;;;;9.70;4.13;;;9.30;99.90;;;;;;5076247;28;20023;-76
2021/11/15 09:37:16;;;;;;;10.60;4.50;;;9.30;99.90;;;;;;5075391;28;20553;-75
2021/11/15 09:39:44;;;;;;;9.38;5.28;;;9.30;99.70;;;;;;5094049;28;20034;-75
2021/11/15 09:42:11;;;;;;;9.88;5.15;;;9.30;99.80;;;;;;5075792;28;20032;-75
2021/11/15 09:44:38;;;;;;;11.18;4.45;;;9.30;99.70;;;;;;5061943;28;20017;-73
2021/11/15 09:47:05;;;;;;;8.82;4.90;;;9.40;99.60;;;;;;5076178;28;20040;-76
2021/11/15 09:49:32;;;;;;;9.82;4.55;;;9.30;99.50;;;;;;5074053;28;20460;-75
2021/11/15 09:51:58;;;;;;;9.68;4.68;;;9.30;99.60;;;;;;5074092;28;20040;-75
2021/11/15 09:54:23;;;;;;;8.20;4.18;;;9.40;99.80;;;;;;5055624;28;20025;-75
2021/11/15 09:56:51;;;;;;;8.60;4.40;;;9.30;99.40;;;;;;5055673;28;20020;-75
2021/11/15 09:59:18;;;;;;;9.38;4.32;;;9.30;99.30;;;;;;5081417;28;20479;-76
2021/11/15 10:01:47;;;;;;;8.07;3.95;;;9.30;99.40;;;;;;5058591;28;20359;-75
2021/11/15 10:04:16;;;;;;;8.18;4.18;;;9.30;99.60;;;;;;5073061;28;20438;-76
2021/11/15 10:06:46;;;;;;;8.60;3.90;;;9.40;99.70;;;;;;5056883;28;20025;-75
2021/11/15 10:09:13;;;;;;;7.72;4.03;;;9.30;99.60;;;;;;5073272;28;20051;-76
2021/11/15 10:11:48;;;;;;;8.63;3.90;;;9.30;99.50;;;;;;5073640;28;20532;-76
2021/11/15 10:14:15;;;;;;;8.77;4.05;;;9.30;99.70;;;;;;5073052;28;20024;-75
2021/11/15 10:16:52;;;;;;;7.47;4.05;;;9.40;99.60;;;;;;5073373;28;20518;-75
2021/11/15 10:19:21;;;;;;;9.70;4.38;;;9.40;99.30;;;;;;5055036;28;20024;-80
2021/11/15 10:21:54;;;;;;;8.02;4.03;;;9.40;99.30;;;;;;5061479;28;20016;-75
2021/11/15 10:24:33;;;;;;;9.88;4.53;;;9.40;99.40;;;;;;5072250;28;20111;-76
2021/11/15 10:27:19;;;;;;;11.18;4.53;;;9.40;99.30;;;;;;5090317;28;20160;-76
2021/11/15 10:29:52;;;;;;;11.07;4.75;;;9.40;99.30;;;;;;5072130;28;20032;-79
2021/11/15 10:32:32;;;;;;;7.78;3.97;;;9.40;99.10;;;;;;5064844;28;20107;-78
2021/11/15 10:35:00;;;;;;;8.48;3.92;;;9.40;99.20;;;;;;5067637;28;20409;-76
2021/11/15 10:37:32;;;;;;;7.18;3.63;;;9.40;99.10;;;;;;5069136;28;20016;-75
2021/11/15 10:40:07;;;;;;;7.22;3.90;;;9.40;99.10;;;;;;5075387;28;20085;-76
2021/11/15 10:42:34;;;;;;;8.57;4.00;;;9.50;99.20;;;;;;5093544;28;20024;-77
2021/11/15 10:45:06;;;;;;;9.15;4.07;;;9.50;99.50;;;;;;5075394;28;20016;-77
2021/11/15 10:47:44;;;;;;;8.00;3.78;;;9.40;99.10;;;;;;5075605;28;20023;-76
2021/11/15 10:50:27;;;;;;;8.73;4.07;;;9.50;99.20;;;;;;5075155;28;20031;-76
2021/11/15 10:53:08;;;;;;;10.63;3.95;;;9.40;98.90;;;;;;5075012;28;20030;-75
2021/11/15 10:55:43;;;;;;;8.70;4.53;;;9.40;99.20;;;;;;5073074;28;20032;-76
2021/11/15 10:58:36;;;;;;;7.97;3.78;;;9.50;99.50;;;;;;5061573;28;20135;-75
2021/11/15 11:01:04;;;;;;;9.63;3.75;;;9.50;99.20;;;;;;5072670;28;20031;-79
2021/11/15 11:03:30;;;;;;;8.85;4.15;;;9.40;99.30;;;;;;5075199;28;20016;-79
2021/11/15 11:06:00;;;;;;;10.57;4.80;;;9.40;99.10;;;;;;5075431;28;20020;-79
2021/11/15 11:08:37;;;;;;;9.68;4.60;;;9.40;99.30;;;;;;5075379;28;20024;-79
2021/11/15 11:11:10;;;;;;;10.23;4.18;;;9.40;99.20;;;;;;5074931;28;20035;-74
2021/11/15 11:13:39;;;;;;;9.57;3.95;;;9.40;99.50;;;;;;5074364;28;20028;-75
2021/11/15 11:16:05;;;;;;;9.52;5.03;;;9.50;99.60;;;;;;5074722;28;20027;-76
2021/11/15 11:18:37;;;;;;;7.43;3.95;;;9.40;99.50;;;;;;5074579;28;20027;-75
2021/11/15 11:26:26;;;;;;;9.70;4.13;;;9.50;99.90;;;;;;5092144;28;20024;-74
2021/11/15 11:28:57;;;;;;;9.52;3.85;;;9.50;99.90;;;;;;5074539;28;20035;-75
2021/11/15 11:31:24;;;;;;;11.05;4.20;;;9.50;99.90;;;;;;5074294;28;20024;-75
2021/11/15 11:33:49;;;;;;;9.95;4.95;;;9.50;99.90;;;;;;5074795;28;20174;-76
2021/11/15 11:36:15;;;;;;;11.32;5.07;;;9.50;99.80;;;;;;5092161;28;20461;-76
2021/11/15 11:38:43;;;;;;;9.43;4.00;;;9.40;99.40;;;;;;5074721;28;20031;-77
2021/11/15 11:41:10;;;;;;;8.73;4.07;;;9.50;99.90;;;;;;5090900;28;20038;-74
2021/11/15 11:43:38;;;;;;;12.25;5.40;;;9.50;99.90;;;;;;5091759;28;20023;-73
2021/11/15 11:46:03;;;;;;;9.75;4.53;;;9.50;99.70;;;;;;5091716;28;20016;-73
2021/11/15 11:48:30;;;;;;;8.73;4.25;;;9.50;99.90;;;;;;5090462;28;20414;-74
2021/11/15 11:50:57;;;;;;;9.50;4.32;;;9.40;99.90;;;;;;5073384;28;20023;-73
2021/11/15 11:53:25;;;;;;;10.45;5.28;;;9.40;99.60;;;;;;5091004;28;20113;-73
2021/11/15 11:55:53;;;;;;;10.82;4.60;;;9.40;99.80;;;;;;5089061;28;20020;-73
2021/11/15 11:58:25;;;;;;;9.57;4.60;;;9.50;99.90;;;;;;5073089;28;20522;-74
2021/11/15 12:00:52;;;;;;;;;;;9.40;99.80;;;;;;5073472;28;20028;-73
2021/11/15 12:03:18;;;;;;;9.80;4.40;;;9.40;99.50;;;;;;5072625;28;19900;-74
2021/11/15 12:05:43;;;;;;;13.27;4.50;;;9.50;99.90;;;;;;5091248;28;20268;-73
2021/11/15 12:08:10;;;;;;;8.75;4.25;;;9.40;99.60;;;;;;5073623;28;20028;-73
2021/11/15 12:10:47;;;;;;;10.52;5.07;;;9.50;99.70;;;;;;5096000;28;20023;-73
2021/11/15 12:13:20;;;;;;;9.95;4.80;;;9.40;99.80;;;;;;5077228;28;20465;-73
2021/11/15 12:15:58;;;;;;;11.82;4.85;;;9.40;99.60;;;;;;5077063;28;20028;-73
2021/11/15 12:18:27;;;;;;;11.80;4.95;;;9.40;99.60;;;;;;5094164;28;20454;-73
2021/11/15 12:21:04;;;;;;;9.48;5.00;;;9.40;99.80;;;;;;5094983;28;20024;-73
2021/11/15 12:23:32;;;;;;;10.75;5.20;;;9.40;99.50;;;;;;5073390;28;20058;-73
2021/11/15 12:26:06;;;;;;;8.57;4.95;;;9.40;99.70;;;;;;5077629;28;20137;-77
2021/11/15 12:28:34;;;;;;;9.40;4.90;;;9.40;99.60;;;;;;5077071;28;20016;-78
2021/11/15 12:31:00;;;;;;;14.02;5.72;;;9.40;99.80;;;;;;5074004;28;20417;-76
2021/11/15 12:33:31;;;;;;;11.23;4.95;;;9.40;99.90;;;;;;5076207;28;20093;-75
2021/11/15 12:36:10;;;;;;;12.30;5.40;;;9.40;99.90;;;;;;5094128;28;20023;-76
2021/11/15 12:38:39;;;;;;;10.18;5.03;;;9.50;99.80;;;;;;5065828;28;20421;-75
2021/11/15 12:41:17;;;;;;;11.13;5.63;;;9.40;99.60;;;;;;5091583;28;20507;-75
2021/11/15 12:44:09;;;;;;;12.75;5.38;;;9.40;99.60;;;;;;5077493;28;20023;-77
2021/11/15 12:46:49;;;;;;;12.48;5.13;;;9.50;99.30;;;;;;5068545;28;20040;-75
2021/11/15 12:49:32;;;;;;;12.80;5.25;;;9.40;99.40;;;;;;5073117;28;20125;-75
2021/11/15 12:52:07;;;;;;;12.77;5.78;;;9.40;99.50;;;;;;5092069;28;20111;-77
2021/11/15 12:54:41;;;;;;;13.50;5.63;;;9.40;99.30;;;;;;5073326;28;20063;-75
2021/11/15 12:57:19;;;;;;;13.30;5.30;;;9.40;99.20;;;;;;5091372;28;20071;-75